M I D A S
Marine Information and Data Acquisition System
Tripno 1570 of the Zeeleeuw from 2008-09-19 06:57:54 to 2008-09-19 14:09:47
Back to CruiseResearch ActivitiesStationsMapUnderway DataData graphs

EquipmentUnitsComment
TimeDGPSUTC
LatitudeDGPSDM.mWGS84
LongitudeDGPSDM.mWGS84
HeadingGyrodeg 
SOGDGPSknotsSpeed over ground
COGDGPSdegCourse over ground
DepthEcho soundermeters200 kHz
Missing or incorrect values are displayed as -999
Navigation data collected by the RV Zeeleeuw from 2008-09-19 06:57:54 to 2008-09-19 14:09:47
                                                                                    Next 1000 lines
Time Latitude Longitude Heading SOG COG Depth
2008-09-19 06:58:10 51°13.622 2°56.045 108 0.1 288 -999
2008-09-19 06:58:20 51°13.623 2°56.038 108 0.1 288 -999
2008-09-19 06:58:30 51°13.625 2°56.03 108 0.1 288 -999
2008-09-19 06:58:40 51°13.628 2°56.016 108 0.1 288 -999
2008-09-19 06:58:50 51°13.631 2°56.004 108 0.1 288 -999
2008-09-19 06:59:00 51°13.635 2°55.986 107.2 3.89 290 -999
2008-09-19 06:59:10 51°13.638 2°55.971 107.2 3.89 290 -999
2008-09-19 06:59:20 51°13.643 2°55.951 107.2 3.89 290 -999
2008-09-19 06:59:30 51°13.648 2°55.931 107.2 3.89 290 -999
2008-09-19 06:59:40 51°13.652 2°55.914 107.2 3.89 290 -999
2008-09-19 06:59:50 51°13.657 2°55.896 107.2 3.89 290 -999
2008-09-19 07:00:00 51°13.664 2°55.875 118.2 4.9 298 -999
2008-09-19 07:00:10 51°13.671 2°55.854 118.2 4.9 298 -999
2008-09-19 07:00:20 51°13.678 2°55.837 118.2 4.9 298 -999
2008-09-19 07:00:30 51°13.684 2°55.821 118.2 4.9 298 -999
2008-09-19 07:00:40 51°13.692 2°55.8 118.2 4.9 298 -999
2008-09-19 07:00:50 51°13.697 2°55.786 118.2 4.9 298 -999
2008-09-19 07:01:00 51°13.702 2°55.769 116.9 4.2 298 -999
2008-09-19 07:01:10 51°13.707 2°55.753 116.9 4.2 298 -999
2008-09-19 07:01:20 51°13.712 2°55.739 116.9 4.2 298 -999
2008-09-19 07:01:30 51°13.715 2°55.728 116.9 4.2 298 -999
2008-09-19 07:01:40 51°13.718 2°55.719 116.9 4.2 298 -999
2008-09-19 07:01:50 51°13.719 2°55.715 116.9 4.2 298 -999
2008-09-19 07:02:00 51°13.721 2°55.714 96.5 0.5 11 -999
2008-09-19 07:02:10 51°13.722 2°55.717 96.5 0.5 11 -999
2008-09-19 07:02:20 51°13.725 2°55.722 96.5 0.5 11 -999
2008-09-19 07:02:30 51°13.729 2°55.728 96.5 0.5 11 -999
2008-09-19 07:02:40 51°13.732 2°55.732 96.5 0.5 11 -999
2008-09-19 07:02:50 51°13.734 2°55.733 96.5 0.5 11 -999
2008-09-19 07:03:00 51°13.734 2°55.731 35.2 0.4 249 -999
2008-09-19 07:03:10 51°13.733 2°55.728 35.2 0.4 249 -999
2008-09-19 07:03:20 51°13.729 2°55.724 35.2 0.4 249 -999
2008-09-19 07:03:30 51°13.727 2°55.72 35.2 0.4 249 -999
2008-09-19 07:03:40 51°13.728 2°55.719 35.2 0.4 249 -999
2008-09-19 07:03:50 51°13.731 2°55.719 35.2 0.4 249 -999
2008-09-19 07:04:00 51°13.738 2°55.717 358.5 2.5 348 -999
2008-09-19 07:04:10 51°13.747 2°55.711 358.5 2.5 348 -999
2008-09-19 07:04:20 51°13.755 2°55.705 358.5 2.5 348 -999
2008-09-19 07:04:30 51°13.765 2°55.696 358.5 2.5 348 -999
2008-09-19 07:04:40 51°13.778 2°55.686 358.5 2.5 348 -999
2008-09-19 07:04:50 51°13.788 2°55.677 358.5 2.5 348 -999
2008-09-19 07:05:00 51°13.801 2°55.666 331.8 5.2 331 -999
2008-09-19 07:05:10 51°13.814 2°55.655 331.8 5.2 331 -999
2008-09-19 07:05:20 51°13.829 2°55.643 331.8 5.2 331 -999
2008-09-19 07:05:30 51°13.841 2°55.633 331.8 5.2 331 -999
2008-09-19 07:05:40 51°13.856 2°55.622 331.8 5.2 331 -999
2008-09-19 07:05:50 51°13.872 2°55.61 331.8 5.2 331 -999
2008-09-19 07:06:00 51°13.887 2°55.598 333.3 6 334 -999
2008-09-19 07:06:10 51°13.901 2°55.587 333.3 6 334 -999
2008-09-19 07:06:20 51°13.917 2°55.574 333.3 6 334 -999
2008-09-19 07:06:30 51°13.937 2°55.559 333.3 6 334 -999
2008-09-19 07:06:40 51°13.953 2°55.546 333.3 6 334 -999
2008-09-19 07:06:50 51°13.972 2°55.531 333.3 6 334 -999
2008-09-19 07:07:00 51°13.99 2°55.515 333 7.59 333 -999
2008-09-19 07:07:10 51°14.011 2°55.498 333 7.59 333 -999
2008-09-19 07:07:20 51°14.03 2°55.483 333 7.59 333 -999
2008-09-19 07:07:30 51°14.047 2°55.47 333 7.59 333 -999
2008-09-19 07:07:40 51°14.065 2°55.455 333 7.59 333 -999
2008-09-19 07:07:50 51°14.084 2°55.439 333 7.59 333 -999
2008-09-19 07:08:00 51°14.101 2°55.425 331.8 7.5 331 -999
2008-09-19 07:08:10 51°14.121 2°55.409 331.8 7.5 331 -999
2008-09-19 07:08:20 51°14.141 2°55.391 331.8 7.5 331 -999
2008-09-19 07:08:30 51°14.164 2°55.369 331.8 7.5 331 -999
2008-09-19 07:08:40 51°14.183 2°55.349 331.8 7.5 331 -999
2008-09-19 07:08:50 51°14.205 2°55.325 331.8 7.5 331 -999
2008-09-19 07:09:00 51°14.228 2°55.295 324.1 9.69 321 -999
2008-09-19 07:09:10 51°14.248 2°55.266 324.1 9.69 321 -999
2008-09-19 07:09:20 51°14.266 2°55.238 324.1 9.69 321 -999
2008-09-19 07:09:30 51°14.286 2°55.204 324.1 9.69 321 -999
2008-09-19 07:09:40 51°14.307 2°55.164 324.1 9.69 321 -999
2008-09-19 07:09:50 51°14.324 2°55.128 324.1 9.69 321 -999
2008-09-19 07:10:00 51°14.342 2°55.087 307 11.5 306 -999
2008-09-19 07:10:10 51°14.361 2°55.039 307 11.5 306 -999
2008-09-19 07:10:20 51°14.378 2°54.999 307 11.5 306 -999
2008-09-19 07:10:30 51°14.398 2°54.958 307 11.5 306 -999
2008-09-19 07:10:40 51°14.423 2°54.914 307 11.5 306 -999
2008-09-19 07:10:50 51°14.447 2°54.876 307 11.5 306 -999
2008-09-19 07:11:00 51°14.469 2°54.844 319.6 12.19 319 -999
2008-09-19 07:11:10 51°14.495 2°54.809 319.6 12.19 319 -999
2008-09-19 07:11:20 51°14.522 2°54.776 319.6 12.19 319 -999
2008-09-19 07:11:30 51°14.55 2°54.746 319.6 12.19 319 -999
2008-09-19 07:11:40 51°14.58 2°54.714 319.6 12.19 319 -999
2008-09-19 07:11:50 51°14.605 2°54.685 319.6 12.19 319 -999
2008-09-19 07:12:00 51°14.635 2°54.65 330.5 12.19 323 -999
2008-09-19 07:12:10 51°14.662 2°54.618 330.5 12.19 323 -999
2008-09-19 07:12:20 51°14.687 2°54.589 330.5 12.19 323 -999
2008-09-19 07:12:30 51°14.714 2°54.557 330.5 12.19 323 -999
2008-09-19 07:12:40 51°14.742 2°54.525 330.5 12.19 323 -999
2008-09-19 07:12:50 51°14.772 2°54.491 330.5 12.19 323 -999
2008-09-19 07:13:00 51°14.797 2°54.463 330.8 12.19 324 -999
2008-09-19 07:13:10 51°14.824 2°54.432 330.8 12.19 324 -999
2008-09-19 07:13:20 51°14.854 2°54.399 330.8 12.19 324 -999
2008-09-19 07:13:30 51°14.879 2°54.371 330.8 12.19 324 -999
2008-09-19 07:13:40 51°14.907 2°54.341 330.8 12.19 324 -999
2008-09-19 07:13:50 51°14.934 2°54.311 330.8 12.19 324 -999
2008-09-19 07:14:00 51°14.962 2°54.282 331 12 326 -999
2008-09-19 07:14:10 51°14.99 2°54.252 331 12 326 -999
2008-09-19 07:14:20 51°15.017 2°54.223 331 12 326 -999
2008-09-19 07:14:30 51°15.044 2°54.193 331 12 326 -999
2008-09-19 07:14:40 51°15.075 2°54.16 331 12 326 -999
2008-09-19 07:14:50 51°15.1 2°54.134 331 12 326 -999
2008-09-19 07:15:00 51°15.128 2°54.104 331.3 12.09 326 -999
2008-09-19 07:15:10 51°15.155 2°54.075 331.3 12.09 326 -999
2008-09-19 07:15:20 51°15.186 2°54.043 331.3 12.09 326 -999
2008-09-19 07:15:30 51°15.215 2°54.016 331.3 12.09 326 -999
2008-09-19 07:15:40 51°15.241 2°53.991 331.3 12.09 326 -999
2008-09-19 07:15:50 51°15.27 2°53.964 331.3 12.09 326 -999
2008-09-19 07:16:00 51°15.298 2°53.937 334.5 12 330 -999
2008-09-19 07:16:10 51°15.33 2°53.908 334.5 12 330 -999
2008-09-19 07:16:20 51°15.359 2°53.881 334.5 12 330 -999
2008-09-19 07:16:30 51°15.386 2°53.856 334.5 12 330 -999
2008-09-19 07:16:40 51°15.415 2°53.83 334.5 12 330 -999
2008-09-19 07:16:50 51°15.447 2°53.8 334.5 12 330 -999
2008-09-19 07:17:00 51°15.473 2°53.776 334.8 12.19 330 -999
2008-09-19 07:17:10 51°15.502 2°53.75 334.8 12.19 330 -999
2008-09-19 07:17:20 51°15.535 2°53.723 334.8 12.19 330 -999
2008-09-19 07:17:30 51°15.565 2°53.698 334.8 12.19 330 -999
2008-09-19 07:17:40 51°15.594 2°53.674 334.8 12.19 330 -999
2008-09-19 07:17:50 51°15.621 2°53.652 334.8 12.19 330 -999
2008-09-19 07:18:00 51°15.651 2°53.628 338.3 12 333 -999
2008-09-19 07:18:10 51°15.681 2°53.603 338.3 12 333 -999
2008-09-19 07:18:20 51°15.714 2°53.577 338.3 12 333 -999
2008-09-19 07:18:30 51°15.741 2°53.555 338.3 12 333 -999
2008-09-19 07:18:40 51°15.771 2°53.532 338.3 12 333 -999
2008-09-19 07:18:50 51°15.804 2°53.506 338.3 12 333 -999
2008-09-19 07:19:00 51°15.834 2°53.484 339.8 12.09 335 -999
2008-09-19 07:19:10 51°15.865 2°53.462 339.8 12.09 335 -999
2008-09-19 07:19:20 51°15.892 2°53.442 339.8 12.09 335 -999
2008-09-19 07:19:30 51°15.923 2°53.419 339.8 12.09 335 -999
2008-09-19 07:19:40 51°15.956 2°53.394 339.8 12.09 335 -999
2008-09-19 07:19:50 51°15.984 2°53.374 339.8 12.09 335 -999
2008-09-19 07:20:00 51°16.017 2°53.349 340.3 12.09 335 -999
2008-09-19 07:20:10 51°16.047 2°53.326 340.3 12.09 335 -999
2008-09-19 07:20:20 51°16.078 2°53.302 340.3 12.09 335 -999
2008-09-19 07:20:30 51°16.105 2°53.281 340.3 12.09 335 -999
2008-09-19 07:20:40 51°16.135 2°53.258 340.3 12.09 335 -999
2008-09-19 07:20:50 51°16.166 2°53.237 340.3 12.09 335 -999
2008-09-19 07:21:00 51°16.197 2°53.216 342.5 12.09 337 -999
2008-09-19 07:21:10 51°16.229 2°53.195 342.5 12.09 337 -999
2008-09-19 07:21:20 51°16.26 2°53.175 342.5 12.09 337 -999
2008-09-19 07:21:30 51°16.294 2°53.152 342.5 12.09 337 -999
2008-09-19 07:21:40 51°16.323 2°53.133 342.5 12.09 337 -999
2008-09-19 07:21:50 51°16.354 2°53.113 342.5 12.09 337 -999
2008-09-19 07:22:00 51°16.388 2°53.09 343.1 12.19 337 -999
2008-09-19 07:22:10 51°16.419 2°53.068 343.1 12.19 337 -999
2008-09-19 07:22:20 51°16.447 2°53.049 343.1 12.19 337 -999
2008-09-19 07:22:30 51°16.478 2°53.028 343.1 12.19 337 -999
2008-09-19 07:22:40 51°16.512 2°53.005 343.1 12.19 337 -999
2008-09-19 07:22:50 51°16.539 2°52.986 343.1 12.19 337 -999
2008-09-19 07:23:00 51°16.574 2°52.963 342.3 12.09 337 -999
2008-09-19 07:23:10 51°16.604 2°52.942 342.3 12.09 337 -999
2008-09-19 07:23:20 51°16.632 2°52.923 342.3 12.09 337 -999
2008-09-19 07:23:30 51°16.663 2°52.902 342.3 12.09 337 -999
2008-09-19 07:23:40 51°16.697 2°52.879 342.3 12.09 337 -999
2008-09-19 07:23:50 51°16.724 2°52.858 342.3 12.09 337 -999
2008-09-19 07:24:00 51°16.755 2°52.837 340.5 12 337 -999
2008-09-19 07:24:10 51°16.785 2°52.816 340.5 12 337 -999
2008-09-19 07:24:20 51°16.819 2°52.794 340.5 12 337 -999
2008-09-19 07:24:30 51°16.849 2°52.773 340.5 12 337 -999
2008-09-19 07:24:40 51°16.877 2°52.755 340.5 12 337 -999
2008-09-19 07:24:50 51°16.911 2°52.733 340.5 12 337 -999
2008-09-19 07:25:00 51°16.941 2°52.713 341.6 12 338 -999
2008-09-19 07:25:10 51°16.969 2°52.694 341.6 12 338 -999
2008-09-19 07:25:20 51°17 2°52.674 341.6 12 338 -999
2008-09-19 07:25:30 51°17.034 2°52.65 341.6 12 338 -999
2008-09-19 07:25:40 51°17.065 2°52.63 341.6 12 338 -999
2008-09-19 07:25:50 51°17.092 2°52.611 341.6 12 338 -999
2008-09-19 07:26:00 51°17.123 2°52.59 341.1 12 338 -999
2008-09-19 07:26:10 51°17.157 2°52.571 341.1 12 338 -999
2008-09-19 07:26:20 51°17.185 2°52.556 341.1 12 338 -999
2008-09-19 07:26:30 51°17.217 2°52.54 341.1 12 338 -999
2008-09-19 07:26:40 51°17.252 2°52.523 341.1 12 338 -999
2008-09-19 07:26:50 51°17.28 2°52.508 341.1 12 338 -999
2008-09-19 07:27:00 51°17.311 2°52.492 346.6 11.9 342 -999
2008-09-19 07:27:10 51°17.343 2°52.476 346.6 11.9 342 -999
2008-09-19 07:27:20 51°17.375 2°52.461 346.6 11.9 342 -999
2008-09-19 07:27:30 51°17.406 2°52.447 346.6 11.9 342 -999
2008-09-19 07:27:40 51°17.438 2°52.434 346.6 11.9 342 -999
2008-09-19 07:27:50 51°17.473 2°52.42 346.6 11.9 342 -999
2008-09-19 07:28:00 51°17.505 2°52.408 351.1 11.8 347 -999
2008-09-19 07:28:10 51°17.536 2°52.396 351.1 11.8 347 -999
2008-09-19 07:28:20 51°17.565 2°52.385 351.1 11.8 347 -999
2008-09-19 07:28:30 51°17.597 2°52.373 351.1 11.8 347 -999
2008-09-19 07:28:40 51°17.632 2°52.36 351.1 11.8 347 -999
2008-09-19 07:28:50 51°17.661 2°52.349 351.1 11.8 347 -999
2008-09-19 07:29:00 51°17.692 2°52.338 352.3 11.8 348 -999
2008-09-19 07:29:10 51°17.724 2°52.329 352.3 11.8 348 -999
2008-09-19 07:29:20 51°17.756 2°52.32 352.3 11.8 348 -999
2008-09-19 07:29:30 51°17.789 2°52.312 352.3 11.8 348 -999
2008-09-19 07:29:40 51°17.824 2°52.304 352.3 11.8 348 -999
2008-09-19 07:29:50 51°17.853 2°52.298 352.3 11.8 348 -999
2008-09-19 07:30:00 51°17.885 2°52.291 357.1 11.69 352 -999
2008-09-19 07:30:10 51°17.92 2°52.283 357.1 11.69 352 -999
2008-09-19 07:30:20 51°17.949 2°52.277 357.1 11.69 352 -999
2008-09-19 07:30:30 51°17.982 2°52.269 357.1 11.69 352 -999
2008-09-19 07:30:40 51°18.017 2°52.262 357.1 11.69 352 -999
2008-09-19 07:30:50 51°18.046 2°52.256 357.1 11.69 352 -999
2008-09-19 07:31:00 51°18.078 2°52.249 357.6 11.69 353 -999
2008-09-19 07:31:10 51°18.111 2°52.243 357.6 11.69 353 -999
2008-09-19 07:31:20 51°18.146 2°52.238 357.6 11.69 353 -999
2008-09-19 07:31:30 51°18.176 2°52.235 357.6 11.69 353 -999
2008-09-19 07:31:40 51°18.208 2°52.232 357.6 11.69 353 -999
2008-09-19 07:31:50 51°18.241 2°52.229 357.6 11.69 353 -999
2008-09-19 07:32:00 51°18.273 2°52.224 1.1 11.8 355 -999
2008-09-19 07:32:10 51°18.306 2°52.22 1.1 11.8 355 -999
2008-09-19 07:32:20 51°18.342 2°52.214 1.1 11.8 355 -999
2008-09-19 07:32:30 51°18.371 2°52.208 1.1 11.8 355 -999
2008-09-19 07:32:40 51°18.404 2°52.203 1.1 11.8 355 -999
2008-09-19 07:32:50 51°18.437 2°52.197 1.1 11.8 355 -999
2008-09-19 07:33:00 51°18.473 2°52.191 359.6 11.8 354 -999
2008-09-19 07:33:10 51°18.502 2°52.186 359.6 11.8 354 -999
2008-09-19 07:33:20 51°18.535 2°52.181 359.6 11.8 354 -999
2008-09-19 07:33:30 51°18.567 2°52.175 359.6 11.8 354 -999
2008-09-19 07:33:40 51°18.6 2°52.17 359.6 11.8 354 -999
2008-09-19 07:33:50 51°18.633 2°52.164 359.6 11.8 354 -999
2008-09-19 07:34:00 51°18.666 2°52.158 359.1 11.9 353 -999
2008-09-19 07:34:10 51°18.699 2°52.152 359.1 11.9 353 -999
2008-09-19 07:34:20 51°18.735 2°52.144 359.1 11.9 353 -999
2008-09-19 07:34:30 51°18.764 2°52.136 359.1 11.9 353 -999
2008-09-19 07:34:40 51°18.796 2°52.127 359.1 11.9 353 -999
2008-09-19 07:34:50 51°18.832 2°52.117 359.1 11.9 353 -999
2008-09-19 07:35:00 51°18.861 2°52.11 355.8 11.9 352 -999
2008-09-19 07:35:10 51°18.894 2°52.101 355.8 11.9 352 -999
2008-09-19 07:35:20 51°18.927 2°52.093 355.8 11.9 352 -999
2008-09-19 07:35:30 51°18.959 2°52.085 355.8 11.9 352 -999
2008-09-19 07:35:40 51°18.992 2°52.078 355.8 11.9 352 -999
2008-09-19 07:35:50 51°19.025 2°52.07 355.8 11.9 352 -999
2008-09-19 07:36:00 51°19.057 2°52.062 357.8 11.9 351 -999
2008-09-19 07:36:10 51°19.09 2°52.055 357.8 11.9 351 -999
2008-09-19 07:36:20 51°19.123 2°52.05 357.8 11.9 351 -999
2008-09-19 07:36:30 51°19.156 2°52.045 357.8 11.9 351 -999
2008-09-19 07:36:40 51°19.188 2°52.041 357.8 11.9 351 -999
2008-09-19 07:36:50 51°19.221 2°52.035 357.8 11.9 351 -999
2008-09-19 07:37:00 51°19.254 2°52.029 0.5 12 352 -999
2008-09-19 07:37:10 51°19.287 2°52.024 0.5 12 352 -999
2008-09-19 07:37:20 51°19.32 2°52.018 0.5 12 352 -999
2008-09-19 07:37:30 51°19.353 2°52.01 0.5 12 352 -999
2008-09-19 07:37:40 51°19.386 2°52.002 0.5 12 352 -999
2008-09-19 07:37:50 51°19.418 2°51.993 0.5 12 352 -999
2008-09-19 07:38:00 51°19.451 2°51.985 357.8 12 351 -999
2008-09-19 07:38:10 51°19.484 2°51.977 357.8 12 351 -999
2008-09-19 07:38:20 51°19.516 2°51.968 357.8 12 351 -999
2008-09-19 07:38:30 51°19.548 2°51.96 357.8 12 351 -999
2008-09-19 07:38:40 51°19.58 2°51.952 357.8 12 351 -999
2008-09-19 07:38:50 51°19.612 2°51.944 357.8 12 351 -999
2008-09-19 07:39:00 51°19.644 2°51.937 359 11.59 352 -999
2008-09-19 07:39:10 51°19.676 2°51.93 359 11.59 352 -999
2008-09-19 07:39:20 51°19.708 2°51.923 359 11.59 352 -999
2008-09-19 07:39:30 51°19.74 2°51.917 359 11.59 352 -999
2008-09-19 07:39:40 51°19.772 2°51.91 359 11.59 352 -999
2008-09-19 07:39:50 51°19.804 2°51.905 359 11.59 352 -999
2008-09-19 07:40:00 51°19.836 2°51.898 0.5 11.59 353 -999
2008-09-19 07:40:10 51°19.868 2°51.891 0.5 11.59 353 -999
2008-09-19 07:40:20 51°19.9 2°51.884 0.5 11.59 353 -999
2008-09-19 07:40:30 51°19.932 2°51.878 0.5 11.59 353 -999
2008-09-19 07:40:40 51°19.964 2°51.872 0.5 11.59 353 -999
2008-09-19 07:40:50 51°19.996 2°51.864 0.5 11.59 353 -999
2008-09-19 07:41:00 51°20.028 2°51.85 355 11.8 346 -999
2008-09-19 07:41:10 51°20.059 2°51.833 355 11.8 346 -999
2008-09-19 07:41:20 51°20.091 2°51.815 355 11.8 346 -999
2008-09-19 07:41:30 51°20.122 2°51.797 355 11.8 346 -999
2008-09-19 07:41:40 51°20.153 2°51.776 355 11.8 346 -999
2008-09-19 07:41:50 51°20.183 2°51.751 355 11.8 346 -999
2008-09-19 07:42:00 51°20.213 2°51.723 339 12.4 328 -999
2008-09-19 07:42:10 51°20.242 2°51.694 339 12.4 328 -999
2008-09-19 07:42:20 51°20.271 2°51.664 339 12.4 328 -999
2008-09-19 07:42:30 51°20.3 2°51.633 339 12.4 328 -999
2008-09-19 07:42:40 51°20.33 2°51.603 339 12.4 328 -999
2008-09-19 07:42:50 51°20.359 2°51.572 339 12.4 328 -999
2008-09-19 07:43:00 51°20.388 2°51.54 334.5 12.69 326 -999
2008-09-19 07:43:10 51°20.418 2°51.508 334.5 12.69 326 -999
2008-09-19 07:43:20 51°20.446 2°51.474 334.5 12.69 326 -999
2008-09-19 07:43:30 51°20.475 2°51.44 334.5 12.69 326 -999
2008-09-19 07:43:40 51°20.504 2°51.407 334.5 12.69 326 -999
2008-09-19 07:43:50 51°20.532 2°51.372 334.5 12.69 326 -999
2008-09-19 07:44:00 51°20.561 2°51.339 331.1 13 323 -999
2008-09-19 07:44:10 51°20.59 2°51.305 331.1 13 323 -999
2008-09-19 07:44:20 51°20.619 2°51.271 331.1 13 323 -999
2008-09-19 07:44:30 51°20.648 2°51.24 331.1 13 323 -999
2008-09-19 07:44:40 51°20.677 2°51.207 331.1 13 323 -999
2008-09-19 07:44:50 51°20.706 2°51.175 331.1 13 323 -999
2008-09-19 07:45:00 51°20.734 2°51.144 331.3 12.5 328 -999
2008-09-19 07:45:10 51°20.764 2°51.116 331.3 12.5 328 -999
2008-09-19 07:45:20 51°20.794 2°51.09 331.3 12.5 328 -999
2008-09-19 07:45:30 51°20.825 2°51.066 331.3 12.5 328 -999
2008-09-19 07:45:40 51°20.856 2°51.045 331.3 12.5 328 -999
2008-09-19 07:45:50 51°20.887 2°51.027 331.3 12.5 328 -999
2008-09-19 07:46:00 51°20.919 2°51.014 350.6 11.9 348 -999
2008-09-19 07:46:10 51°20.951 2°51.006 350.6 11.9 348 -999
2008-09-19 07:46:20 51°20.984 2°51.001 350.6 11.9 348 -999
2008-09-19 07:46:30 51°21.017 2°51.001 350.6 11.9 348 -999
2008-09-19 07:46:40 51°21.05 2°51 350.6 11.9 348 -999
2008-09-19 07:46:50 51°21.082 2°51.001 350.6 11.9 348 -999
2008-09-19 07:47:00 51°21.116 2°51.002 7 11.9 1 -999
2008-09-19 07:47:10 51°21.149 2°51.003 7 11.9 1 -999
2008-09-19 07:47:20 51°21.181 2°51.009 7 11.9 1 -999
2008-09-19 07:47:30 51°21.212 2°51.018 7 11.9 1 -999
2008-09-19 07:47:40 51°21.244 2°51.028 7 11.9 1 -999
2008-09-19 07:47:50 51°21.275 2°51.04 7 11.9 1 -999
2008-09-19 07:48:00 51°21.306 2°51.053 19.8 11.59 14 -999
2008-09-19 07:48:10 51°21.337 2°51.066 19.8 11.59 14 -999
2008-09-19 07:48:20 51°21.367 2°51.084 19.8 11.59 14 -999
2008-09-19 07:48:30 51°21.396 2°51.103 19.8 11.59 14 -999
2008-09-19 07:48:40 51°21.426 2°51.122 19.8 11.59 14 -999
2008-09-19 07:48:50 51°21.455 2°51.141 19.8 11.59 14 -999
2008-09-19 07:49:00 51°21.484 2°51.159 27.8 11.3 20 -999
2008-09-19 07:49:10 51°21.514 2°51.177 27.8 11.3 20 -999
2008-09-19 07:49:20 51°21.543 2°51.196 27.8 11.3 20 -999
2008-09-19 07:49:30 51°21.572 2°51.215 27.8 11.3 20 -999
2008-09-19 07:49:40 51°21.6 2°51.235 27.8 11.3 20 -999
2008-09-19 07:49:50 51°21.629 2°51.254 27.8 11.3 20 -999
2008-09-19 07:50:00 51°21.658 2°51.273 26.8 11.3 21 -999
2008-09-19 07:50:10 51°21.687 2°51.292 26.8 11.3 21 -999
2008-09-19 07:50:20 51°21.715 2°51.311 26.8 11.3 21 -999
2008-09-19 07:50:30 51°21.744 2°51.328 26.8 11.3 21 -999
2008-09-19 07:50:40 51°21.774 2°51.343 26.8 11.3 21 -999
2008-09-19 07:50:50 51°21.805 2°51.357 26.8 11.3 21 -999
2008-09-19 07:51:00 51°21.834 2°51.373 24.8 11.59 12 -999
2008-09-19 07:51:10 51°21.864 2°51.387 24.8 11.59 12 -999
2008-09-19 07:51:20 51°21.896 2°51.393 24.8 11.59 12 -999
2008-09-19 07:51:30 51°21.927 2°51.393 24.8 11.59 12 -999
2008-09-19 07:51:40 51°21.96 2°51.391 24.8 11.59 12 -999
2008-09-19 07:51:50 51°21.992 2°51.385 24.8 11.59 12 -999
2008-09-19 07:52:00 51°22.025 2°51.377 359 11.9 351 -999
2008-09-19 07:52:10 51°22.057 2°51.368 359 11.9 351 -999
2008-09-19 07:52:20 51°22.09 2°51.36 359 11.9 351 -999
2008-09-19 07:52:30 51°22.123 2°51.353 359 11.9 351 -999
2008-09-19 07:52:40 51°22.157 2°51.346 359 11.9 351 -999
2008-09-19 07:52:50 51°22.19 2°51.34 359 11.9 351 -999
2008-09-19 07:53:00 51°22.223 2°51.334 0.5 12 354 -999
2008-09-19 07:53:10 51°22.256 2°51.329 0.5 12 354 -999
2008-09-19 07:53:20 51°22.289 2°51.323 0.5 12 354 -999
2008-09-19 07:53:30 51°22.322 2°51.317 0.5 12 354 -999
2008-09-19 07:53:40 51°22.355 2°51.311 0.5 12 354 -999
2008-09-19 07:53:50 51°22.389 2°51.305 0.5 12 354 -999
2008-09-19 07:54:00 51°22.422 2°51.299   12.09 354 -999
2008-09-19 07:54:10 51°22.455 2°51.293   12.09 354 -999
2008-09-19 07:54:20 51°22.488 2°51.287   12.09 354 -999
2008-09-19 07:54:30 51°22.521 2°51.282   12.09 354 -999
2008-09-19 07:54:40 51°22.554 2°51.277   12.09 354 -999
2008-09-19 07:54:50 51°22.587 2°51.272   12.09 354 -999
2008-09-19 07:55:00 51°22.621 2°51.267 0.9 12 355 -999
2008-09-19 07:55:10 51°22.654 2°51.263 0.9 12 355 -999
2008-09-19 07:55:20 51°22.687 2°51.261 0.9 12 355 -999
2008-09-19 07:55:30 51°22.721 2°51.26 0.9 12 355 -999
2008-09-19 07:55:40 51°22.754 2°51.257 0.9 12 355 -999
2008-09-19 07:55:50 51°22.788 2°51.255 0.9 12 355 -999
2008-09-19 07:56:00 51°22.821 2°51.251 3.1 12.09 356 -999
2008-09-19 07:56:10 51°22.855 2°51.247 3.1 12.09 356 -999
2008-09-19 07:56:20 51°22.888 2°51.242 3.1 12.09 356 -999
2008-09-19 07:56:30 51°22.922 2°51.238 3.1 12.09 356 -999
2008-09-19 07:56:40 51°22.955 2°51.233 3.1 12.09 356 -999
2008-09-19 07:56:50 51°22.988 2°51.229 3.1 12.09 356 -999
2008-09-19 07:57:00 51°23.022 2°51.225 2.2 12 356 -999
2008-09-19 07:57:10 51°23.055 2°51.221 2.2 12 356 -999
2008-09-19 07:57:20 51°23.088 2°51.215 2.2 12 356 -999
2008-09-19 07:57:30 51°23.121 2°51.209 2.2 12 356 -999
2008-09-19 07:57:40 51°23.154 2°51.202 2.2 12 356 -999
2008-09-19 07:57:50 51°23.187 2°51.195 2.2 12 356 -999
2008-09-19 07:58:00 51°23.22 2°51.188 359.1 12 353 -999
2008-09-19 07:58:10 51°23.253 2°51.182 359.1 12 353 -999
2008-09-19 07:58:20 51°23.286 2°51.176 359.1 12 353 -999
2008-09-19 07:58:30 51°23.319 2°51.169 359.1 12 353 -999
2008-09-19 07:58:40 51°23.352 2°51.163 359.1 12 353 -999
2008-09-19 07:58:50 51°23.385 2°51.156 359.1 12 353 -999
2008-09-19 07:59:00 51°23.419 2°51.15 359.3 12 353 -999
2008-09-19 07:59:10 51°23.451 2°51.144 359.3 12 353 -999
2008-09-19 07:59:20 51°23.484 2°51.138 359.3 12 353 -999
2008-09-19 07:59:30 51°23.518 2°51.133 359.3 12 353 -999
2008-09-19 07:59:40 51°23.551 2°51.127 359.3 12 353 -999
2008-09-19 07:59:50 51°23.584 2°51.121 359.3 12 353 -999
2008-09-19 08:00:00 51°23.618 2°51.116 359.8 12.09 354 -999
2008-09-19 08:00:10 51°23.651 2°51.11 359.8 12.09 354 -999
2008-09-19 08:00:20 51°23.684 2°51.104 359.8 12.09 354 -999
2008-09-19 08:00:30 51°23.718 2°51.099 359.8 12.09 354 -999
2008-09-19 08:00:40 51°23.751 2°51.093 359.8 12.09 354 -999
2008-09-19 08:00:50 51°23.784 2°51.087 359.8 12.09 354 -999
2008-09-19 08:01:00 51°23.817 2°51.082 0.2 12.09 354 -999
2008-09-19 08:01:10 51°23.85 2°51.076 0.2 12.09 354 -999
2008-09-19 08:01:20 51°23.884 2°51.072 0.2 12.09 354 -999
2008-09-19 08:01:30 51°23.918 2°51.069 0.2 12.09 354 -999
2008-09-19 08:01:40 51°23.951 2°51.066 0.2 12.09 354 -999
2008-09-19 08:01:50 51°23.984 2°51.064 0.2 12.09 354 -999
2008-09-19 08:02:00 51°24.017 2°51.061 3.7 12 357 -999
2008-09-19 08:02:10 51°24.05 2°51.058 3.7 12 357 -999
2008-09-19 08:02:20 51°24.083 2°51.055 3.7 12 357 -999
2008-09-19 08:02:30 51°24.116 2°51.052 3.7 12 357 -999
2008-09-19 08:02:40 51°24.149 2°51.048 3.7 12 357 -999
2008-09-19 08:02:50 51°24.182 2°51.044 3.7 12 357 -999
2008-09-19 08:03:00 51°24.215 2°51.041 3.1 12 356 -999
2008-09-19 08:03:10 51°24.248 2°51.037 3.1 12 356 -999
2008-09-19 08:03:20 51°24.281 2°51.031 3.1 12 356 -999
2008-09-19 08:03:30 51°24.315 2°51.024 3.1 12 356 -999
2008-09-19 08:03:40 51°24.348 2°51.016 3.1 12 356 -999
2008-09-19 08:03:50 51°24.38 2°51.009 3.1 12 356 -999
2008-09-19 08:04:00 51°24.413 2°51.002 359.3 11.9 353 -999
2008-09-19 08:04:10 51°24.446 2°50.995 359.3 11.9 353 -999
2008-09-19 08:04:20 51°24.479 2°50.989 359.3 11.9 353 -999
2008-09-19 08:04:30 51°24.511 2°50.982 359.3 11.9 353 -999
2008-09-19 08:04:40 51°24.544 2°50.975 359.3 11.9 353 -999
2008-09-19 08:04:50 51°24.576 2°50.968 359.3 11.9 353 -999
2008-09-19 08:05:00 51°24.609 2°50.961 359.8 11.8 352 -999
2008-09-19 08:05:10 51°24.641 2°50.955 359.8 11.8 352 -999
2008-09-19 08:05:20 51°24.674 2°50.949 359.8 11.8 352 -999
2008-09-19 08:05:30 51°24.706 2°50.944 359.8 11.8 352 -999
2008-09-19 08:05:40 51°24.738 2°50.938 359.8 11.8 352 -999
2008-09-19 08:05:50 51°24.771 2°50.933 359.8 11.8 352 -999
2008-09-19 08:06:00 51°24.804 2°50.926 1.1 11.8 353 -999
2008-09-19 08:06:10 51°24.836 2°50.92 1.1 11.8 353 -999
2008-09-19 08:06:20 51°24.868 2°50.913 1.1 11.8 353 -999
2008-09-19 08:06:30 51°24.9 2°50.906 1.1 11.8 353 -999
2008-09-19 08:06:40 51°24.933 2°50.899 1.1 11.8 353 -999
2008-09-19 08:06:50 51°24.965 2°50.892 1.1 11.8 353 -999
2008-09-19 08:07:00 51°24.997 2°50.886 0.9 11.69 354 -999
2008-09-19 08:07:10 51°25.029 2°50.882 0.9 11.69 354 -999
2008-09-19 08:07:20 51°25.062 2°50.875 0.9 11.69 354 -999
2008-09-19 08:07:30 51°25.094 2°50.868 0.9 11.69 354 -999
2008-09-19 08:07:40 51°25.126 2°50.861 0.9 11.69 354 -999
2008-09-19 08:07:50 51°25.158 2°50.853 0.9 11.69 354 -999
2008-09-19 08:08:00 51°25.19 2°50.847 0.4 11.69 352 -999
2008-09-19 08:08:10 51°25.222 2°50.84 0.4 11.69 352 -999
2008-09-19 08:08:20 51°25.255 2°50.835 0.4 11.69 352 -999
2008-09-19 08:08:30 51°25.287 2°50.83 0.4 11.69 352 -999
2008-09-19 08:08:40 51°25.319 2°50.825 0.4 11.69 352 -999
2008-09-19 08:08:50 51°25.352 2°50.821 0.4 11.69 352 -999
2008-09-19 08:09:00 51°25.383 2°50.815 2.1 11.59 354 -999
2008-09-19 08:09:10 51°25.415 2°50.808 2.1 11.59 354 -999
2008-09-19 08:09:20 51°25.447 2°50.801 2.1 11.59 354 -999
2008-09-19 08:09:30 51°25.479 2°50.793 2.1 11.59 354 -999
2008-09-19 08:09:40 51°25.512 2°50.786 2.1 11.59 354 -999
2008-09-19 08:09:50 51°25.544 2°50.778 2.1 11.59 354 -999
2008-09-19 08:10:00 51°25.576 2°50.771 0.4 11.59 352 -999
2008-09-19 08:10:10 51°25.608 2°50.764 0.4 11.59 352 -999
2008-09-19 08:10:20 51°25.64 2°50.757 0.4 11.59 352 -999
2008-09-19 08:10:30 51°25.672 2°50.75 0.4 11.59 352 -999
2008-09-19 08:10:40 51°25.704 2°50.742 0.4 11.59 352 -999
2008-09-19 08:10:50 51°25.736 2°50.736 0.4 11.59 352 -999
2008-09-19 08:11:00 51°25.768 2°50.73 1.6 11.69 354 -999
2008-09-19 08:11:10 51°25.8 2°50.724 1.6 11.69 354 -999
2008-09-19 08:11:20 51°25.833 2°50.718 1.6 11.69 354 -999
2008-09-19 08:11:30 51°25.865 2°50.713 1.6 11.69 354 -999
2008-09-19 08:11:40 51°25.897 2°50.707 1.6 11.69 354 -999
2008-09-19 08:11:50 51°25.929 2°50.701 1.6 11.69 354 -999
2008-09-19 08:12:00 51°25.962 2°50.695 1.6 11.69 353 -999
2008-09-19 08:12:10 51°25.994 2°50.689 1.6 11.69 353 -999
2008-09-19 08:12:20 51°26.027 2°50.683 1.6 11.69 353 -999
2008-09-19 08:12:30 51°26.059 2°50.679 1.6 11.69 353 -999
2008-09-19 08:12:40 51°26.092 2°50.675 1.6 11.69 353 -999
2008-09-19 08:12:50 51°26.125 2°50.672 1.6 11.69 353 -999
2008-09-19 08:13:00 51°26.157 2°50.667 3.6 11.8 355 -999
2008-09-19 08:13:10 51°26.189 2°50.661 3.6 11.8 355 -999
2008-09-19 08:13:20 51°26.221 2°50.654 3.6 11.8 355 -999
2008-09-19 08:13:30 51°26.254 2°50.648 3.6 11.8 355 -999
2008-09-19 08:13:40 51°26.287 2°50.644 3.6 11.8 355 -999
2008-09-19 08:13:50 51°26.319 2°50.64 3.6 11.8 355 -999
2008-09-19 08:14:00 51°26.352 2°50.636 4.2 11.9 355 -999
2008-09-19 08:14:10 51°26.385 2°50.633 4.2 11.9 355 -999
2008-09-19 08:14:20 51°26.417 2°50.629 4.2 11.9 355 -999
2008-09-19 08:14:30 51°26.451 2°50.627 4.2 11.9 355 -999
2008-09-19 08:14:40 51°26.483 2°50.624 4.2 11.9 355 -999
2008-09-19 08:14:50 51°26.516 2°50.621 4.2 11.9 355 -999
2008-09-19 08:15:00 51°26.549 2°50.619 4.7 11.9 357 -999
2008-09-19 08:15:10 51°26.582 2°50.616 4.7 11.9 357 -999
2008-09-19 08:15:20 51°26.615 2°50.613 4.7 11.9 357 -999
2008-09-19 08:15:30 51°26.647 2°50.61 4.7 11.9 357 -999
2008-09-19 08:15:40 51°26.68 2°50.607 4.7 11.9 357 -999
2008-09-19 08:15:50 51°26.713 2°50.605 4.7 11.9 357 -999
2008-09-19 08:16:00 51°26.745 2°50.602 4 11.8 357 -999
2008-09-19 08:16:10 51°26.778 2°50.599 4 11.8 357 -999
2008-09-19 08:16:20 51°26.811 2°50.597 4 11.8 357 -999
2008-09-19 08:16:30 51°26.844 2°50.594 4 11.8 357 -999
2008-09-19 08:16:40 51°26.876 2°50.59 4 11.8 357 -999
2008-09-19 08:16:50 51°26.909 2°50.588 4 11.8 357 -999
2008-09-19 08:17:00 51°26.942 2°50.586 4.5 11.8 358 -999
2008-09-19 08:17:10 51°26.974 2°50.585 4.5 11.8 358 -999
2008-09-19 08:17:20 51°27.007 2°50.583 4.5 11.8 358 -999
2008-09-19 08:17:30 51°27.039 2°50.581 4.5 11.8 358 -999
2008-09-19 08:17:40 51°27.072 2°50.58 4.5 11.8 358 -999
2008-09-19 08:17:50 51°27.105 2°50.578 4.5 11.8 358 -999
2008-09-19 08:18:00 51°27.137 2°50.576 4.9 11.8 358 -999
2008-09-19 08:18:10 51°27.17 2°50.574 4.9 11.8 358 -999
2008-09-19 08:18:20 51°27.203 2°50.573 4.9 11.8 358 -999
2008-09-19 08:18:30 51°27.236 2°50.571 4.9 11.8 358 -999
2008-09-19 08:18:40 51°27.269 2°50.569 4.9 11.8 358 -999
2008-09-19 08:18:50 51°27.302 2°50.566 4.9 11.8 358 -999
2008-09-19 08:19:00 51°27.334 2°50.563 2.8 11.8 357 -999
2008-09-19 08:19:10 51°27.367 2°50.56 2.8 11.8 357 -999
2008-09-19 08:19:20 51°27.4 2°50.556 2.8 11.8 357 -999
2008-09-19 08:19:30 51°27.432 2°50.552 2.8 11.8 357 -999
2008-09-19 08:19:40 51°27.465 2°50.546 2.8 11.8 357 -999
2008-09-19 08:19:50 51°27.498 2°50.539 2.8 11.8 357 -999
2008-09-19 08:20:00 51°27.53 2°50.533 359.6 11.8 354 -999
2008-09-19 08:20:10 51°27.562 2°50.529 359.6 11.8 354 -999
2008-09-19 08:20:20 51°27.595 2°50.525 359.6 11.8 354 -999
2008-09-19 08:20:30 51°27.627 2°50.524 359.6 11.8 354 -999
2008-09-19 08:20:40 51°27.66 2°50.524 359.6 11.8 354 -999
2008-09-19 08:20:50 51°27.692 2°50.523 359.6 11.8 354 -999
2008-09-19 08:21:00 51°27.725 2°50.52 4 11.69 357 -999
2008-09-19 08:21:10 51°27.757 2°50.517 4 11.69 357 -999
2008-09-19 08:21:20 51°27.79 2°50.513 4 11.69 357 -999
2008-09-19 08:21:30 51°27.822 2°50.51 4 11.69 357 -999
2008-09-19 08:21:40 51°27.855 2°50.507 4 11.69 357 -999
2008-09-19 08:21:50 51°27.888 2°50.504 4 11.69 357 -999
2008-09-19 08:22:00 51°27.92 2°50.502 3.7 11.69 357 -999
2008-09-19 08:22:10 51°27.952 2°50.499 3.7 11.69 357 -999
2008-09-19 08:22:20 51°27.984 2°50.496 3.7 11.69 357 -999
2008-09-19 08:22:30 51°28.017 2°50.493 3.7 11.69 357 -999
2008-09-19 08:22:40 51°28.049 2°50.49 3.7 11.69 357 -999
2008-09-19 08:22:50 51°28.081 2°50.487 3.7 11.69 357 -999
2008-09-19 08:23:00 51°28.114 2°50.484 3.5 11.69 357 -999
2008-09-19 08:23:10 51°28.146 2°50.482 3.5 11.69 357 -999
2008-09-19 08:23:20 51°28.178 2°50.479 3.5 11.69 357 -999
2008-09-19 08:23:30 51°28.21 2°50.476 3.5 11.69 357 -999
2008-09-19 08:23:40 51°28.243 2°50.473 3.5 11.69 357 -999
2008-09-19 08:23:50 51°28.275 2°50.471 3.5 11.69 357 -999
2008-09-19 08:24:00 51°28.307 2°50.468 3.7 11.69 357 -999
2008-09-19 08:24:10 51°28.339 2°50.467 3.7 11.69 357 -999
2008-09-19 08:24:20 51°28.371 2°50.465 3.7 11.69 357 -999
2008-09-19 08:24:30 51°28.404 2°50.462 3.7 11.69 357 -999
2008-09-19 08:24:40 51°28.436 2°50.459 3.7 11.69 357 -999
2008-09-19 08:24:50 51°28.468 2°50.457 3.7 11.69 357 -999
2008-09-19 08:25:00 51°28.5 2°50.456 4.2 11.59 359 -999
2008-09-19 08:25:10 51°28.532 2°50.455 4.2 11.59 359 -999
2008-09-19 08:25:20 51°28.564 2°50.453 4.2 11.59 359 -999
2008-09-19 08:25:30 51°28.596 2°50.453 4.2 11.59 359 -999
2008-09-19 08:25:40 51°28.628 2°50.452 4.2 11.59 359 -999
2008-09-19 08:25:50 51°28.66 2°50.451 4.2 11.59 359 -999
2008-09-19 08:26:00 51°28.692 2°50.451 6.7 11.4   -999
2008-09-19 08:26:10 51°28.724 2°50.45 6.7 11.4   -999
2008-09-19 08:26:20 51°28.755 2°50.449 6.7 11.4   -999
2008-09-19 08:26:30 51°28.787 2°50.447 6.7 11.4   -999
2008-09-19 08:26:40 51°28.818 2°50.444 6.7 11.4   -999
2008-09-19 08:26:50 51°28.85 2°50.441 6.7 11.4   -999
2008-09-19 08:27:00 51°28.881 2°50.436 3.3 11.3 355 -999
2008-09-19 08:27:10 51°28.913 2°50.431 3.3 11.3 355 -999
2008-09-19 08:27:20 51°28.944 2°50.427 3.3 11.3 355 -999
2008-09-19 08:27:30 51°28.976 2°50.423 3.3 11.3 355 -999
2008-09-19 08:27:40 51°29.006 2°50.423 3.3 11.3 355 -999
2008-09-19 08:27:50 51°29.036 2°50.426 3.3 11.3 355 -999
2008-09-19 08:28:00 51°29.067 2°50.431 12.5 11 7 -999
2008-09-19 08:28:10 51°29.097 2°50.438 12.5 11 7 -999
2008-09-19 08:28:20 51°29.126 2°50.45 12.5 11 7 -999
2008-09-19 08:28:30 51°29.153 2°50.469 12.5 11 7 -999
2008-09-19 08:28:40 51°29.18 2°50.49 12.5 11 7 -999
2008-09-19 08:28:50 51°29.205 2°50.514 12.5 11 7 -999
2008-09-19 08:29:00 51°29.23 2°50.54 36.7 10.59 34 -999
2008-09-19 08:29:10 51°29.253 2°50.568 36.7 10.59 34 -999
2008-09-19 08:29:20 51°29.276 2°50.598 36.7 10.59 34 -999
2008-09-19 08:29:30 51°29.297 2°50.631 36.7 10.59 34 -999
2008-09-19 08:29:40 51°29.317 2°50.666 36.7 10.59 34 -999
2008-09-19 08:29:50 51°29.334 2°50.702 36.7 10.59 34 -999
2008-09-19 08:30:00 51°29.349 2°50.742 56.6 10.4 60 -999
2008-09-19 08:30:10 51°29.362 2°50.784 56.6 10.4 60 -999
2008-09-19 08:30:20 51°29.373 2°50.827 56.6 10.4 60 -999
2008-09-19 08:30:30 51°29.384 2°50.87 56.6 10.4 60 -999
2008-09-19 08:30:40 51°29.396 2°50.913 56.6 10.4 60 -999
2008-09-19 08:30:50 51°29.406 2°50.957 56.6 10.4 60 -999
2008-09-19 08:31:00 51°29.417 2°51 68.2 10.59 69 -999
2008-09-19 08:31:10 51°29.427 2°51.044 68.2 10.59 69 -999
2008-09-19 08:31:20 51°29.44 2°51.086 68.2 10.59 69 -999
2008-09-19 08:31:30 51°29.453 2°51.128 68.2 10.59 69 -999
2008-09-19 08:31:40 51°29.466 2°51.17 68.2 10.59 69 -999
2008-09-19 08:31:50 51°29.48 2°51.211 68.2 10.59 69 -999
2008-09-19 08:32:00 51°29.494 2°51.252 62.2 10.59 61 -999
2008-09-19 08:32:10 51°29.508 2°51.294 62.2 10.59 61 -999
2008-09-19 08:32:20 51°29.521 2°51.335 62.2 10.59 61 -999
2008-09-19 08:32:30 51°29.534 2°51.377 62.2 10.59 61 -999
2008-09-19 08:32:40 51°29.548 2°51.419 62.2 10.59 61 -999
2008-09-19 08:32:50 51°29.561 2°51.46 62.2 10.59 61 -999
2008-09-19 08:33:00 51°29.575 2°51.502 62.7 10.59 62 -999
2008-09-19 08:33:10 51°29.588 2°51.544 62.7 10.59 62 -999
2008-09-19 08:33:20 51°29.602 2°51.585 62.7 10.59 62 -999
2008-09-19 08:33:30 51°29.617 2°51.626 62.7 10.59 62 -999
2008-09-19 08:33:40 51°29.632 2°51.667 62.7 10.59 62 -999
2008-09-19 08:33:50 51°29.646 2°51.708 62.7 10.59 62 -999
2008-09-19 08:34:00 51°29.66 2°51.75 61.5 10.59 62 -999
2008-09-19 08:34:10 51°29.674 2°51.792 61.5 10.59 62 -999
2008-09-19 08:34:20 51°29.687 2°51.833 61.5 10.59 62 -999
2008-09-19 08:34:30 51°29.701 2°51.876 61.5 10.59 62 -999
2008-09-19 08:34:40 51°29.714 2°51.918 61.5 10.59 62 -999
2008-09-19 08:34:50 51°29.728 2°51.96 61.5 10.59 62 -999
2008-09-19 08:35:00 51°29.741 2°52.002 62.5 10.59 63 -999
2008-09-19 08:35:10 51°29.754 2°52.045 62.5 10.59 63 -999
2008-09-19 08:35:20 51°29.767 2°52.088 62.5 10.59 63 -999
2008-09-19 08:35:30 51°29.779 2°52.131 62.5 10.59 63 -999
2008-09-19 08:35:40 51°29.792 2°52.173 62.5 10.59 63 -999
2008-09-19 08:35:50 51°29.805 2°52.216 62.5 10.59 63 -999
2008-09-19 08:36:00 51°29.818 2°52.258 64 10.59 64 -999
2008-09-19 08:36:10 51°29.83 2°52.301 64 10.59 64 -999
2008-09-19 08:36:20 51°29.843 2°52.344 64 10.59 64 -999
2008-09-19 08:36:30 51°29.855 2°52.387 64 10.59 64 -999
2008-09-19 08:36:40 51°29.868 2°52.43 64 10.59 64 -999
2008-09-19 08:36:50 51°29.881 2°52.473 64 10.59 64 -999
2008-09-19 08:37:00 51°29.893 2°52.515 63.8 10.59 65 -999
2008-09-19 08:37:10 51°29.906 2°52.559 63.8 10.59 65 -999
2008-09-19 08:37:20 51°29.919 2°52.601 63.8 10.59 65 -999
2008-09-19 08:37:30 51°29.931 2°52.644 63.8 10.59 65 -999
2008-09-19 08:37:40 51°29.943 2°52.687 63.8 10.59 65 -999
2008-09-19 08:37:50 51°29.954 2°52.731 63.8 10.59 65 -999
2008-09-19 08:38:00 51°29.965 2°52.775 66.7 10.69 67 -999
2008-09-19 08:38:10 51°29.977 2°52.819 66.7 10.69 67 -999
2008-09-19 08:38:20 51°29.988 2°52.863 66.7 10.69 67 -999
2008-09-19 08:38:30 51°30 2°52.906 66.7 10.69 67 -999
2008-09-19 08:38:40 51°30.011 2°52.95 66.7 10.69 67 -999
2008-09-19 08:38:50 51°30.022 2°52.993 66.7 10.69 67 -999
2008-09-19 08:39:00 51°30.034 2°53.037 66.9 10.59 67 -999
2008-09-19 08:39:10 51°30.046 2°53.08 66.9 10.59 67 -999
2008-09-19 08:39:20 51°30.058 2°53.123 66.9 10.59 67 -999
2008-09-19 08:39:30 51°30.07 2°53.165 66.9 10.59 67 -999
2008-09-19 08:39:40 51°30.084 2°53.207 66.9 10.59 67 -999
2008-09-19 08:39:50 51°30.097 2°53.249 66.9 10.59 67 -999
2008-09-19 08:40:00 51°30.109 2°53.291 62.7 10.59 66 -999
2008-09-19 08:40:10 51°30.121 2°53.334 62.7 10.59 66 -999
2008-09-19 08:40:20 51°30.133 2°53.377 62.7 10.59 66 -999
2008-09-19 08:40:30 51°30.144 2°53.42 62.7 10.59 66 -999
2008-09-19 08:40:40 51°30.156 2°53.463 62.7 10.59 66 -999
2008-09-19 08:40:50 51°30.167 2°53.506 62.7 10.59 66 -999
2008-09-19 08:41:00 51°30.178 2°53.55 66.5 10.5 68 -999
2008-09-19 08:41:10 51°30.189 2°53.593 66.5 10.5 68 -999
2008-09-19 08:41:20 51°30.2 2°53.637 66.5 10.5 68 -999
2008-09-19 08:41:30 51°30.211 2°53.68 66.5 10.5 68 -999
2008-09-19 08:41:40 51°30.222 2°53.723 66.5 10.5 68 -999
2008-09-19 08:41:50 51°30.233 2°53.766 66.5 10.5 68 -999
2008-09-19 08:42:00 51°30.244 2°53.81 67.2 10.5 68 -999
2008-09-19 08:42:10 51°30.254 2°53.854 67.2 10.5 68 -999
2008-09-19 08:42:20 51°30.264 2°53.898 67.2 10.5 68 -999
2008-09-19 08:42:30 51°30.274 2°53.942 67.2 10.5 68 -999
2008-09-19 08:42:40 51°30.284 2°53.986 67.2 10.5 68 -999
2008-09-19 08:42:50 51°30.295 2°54.03 67.2 10.5 68 -999
2008-09-19 08:43:00 51°30.306 2°54.073 67.4 10.5 66 -999
2008-09-19 08:43:10 51°30.318 2°54.117 67.4 10.5 66 -999
2008-09-19 08:43:20 51°30.329 2°54.159 67.4 10.5 66 -999
2008-09-19 08:43:30 51°30.341 2°54.203 67.4 10.5 66 -999
2008-09-19 08:43:40 51°30.353 2°54.246 67.4 10.5 66 -999
2008-09-19 08:43:50 51°30.366 2°54.288 67.4 10.5 66 -999
2008-09-19 08:44:00 51°30.379 2°54.329 63.7 10.5 62 -999
2008-09-19 08:44:10 51°30.392 2°54.371 63.7 10.5 62 -999
2008-09-19 08:44:20 51°30.406 2°54.412 63.7 10.5 62 -999
2008-09-19 08:44:30 51°30.419 2°54.454 63.7 10.5 62 -999
2008-09-19 08:44:40 51°30.431 2°54.497 63.7 10.5 62 -999
2008-09-19 08:44:50 51°30.444 2°54.539 63.7 10.5 62 -999
2008-09-19 08:45:00 51°30.456 2°54.582 65 10.5 66 -999
2008-09-19 08:45:10 51°30.468 2°54.624 65 10.5 66 -999
2008-09-19 08:45:20 51°30.48 2°54.667 65 10.5 66 -999
2008-09-19 08:45:30 51°30.492 2°54.709 65 10.5 66 -999
2008-09-19 08:45:40 51°30.504 2°54.752 65 10.5 66 -999
2008-09-19 08:45:50 51°30.516 2°54.794 65 10.5 66 -999
2008-09-19 08:46:00 51°30.527 2°54.837 65 10.5 66 -999
2008-09-19 08:46:10 51°30.539 2°54.879 65 10.5 66 -999
2008-09-19 08:46:20 51°30.551 2°54.921 65 10.5 66 -999
2008-09-19 08:46:30 51°30.563 2°54.964 65 10.5 66 -999
2008-09-19 08:46:40 51°30.574 2°55.007 65 10.5 66 -999
2008-09-19 08:46:50 51°30.586 2°55.05 65 10.5 66 -999
2008-09-19 08:47:00 51°30.597 2°55.092 66 10.4 67 -999
2008-09-19 08:47:10 51°30.61 2°55.139 66 10.4 67 -999
2008-09-19 08:47:20 51°30.62 2°55.177 66 10.4 67 -999
2008-09-19 08:47:30 51°30.632 2°55.22 66 10.4 67 -999
2008-09-19 08:47:40 51°30.643 2°55.262 66 10.4 67 -999
2008-09-19 08:47:50 51°30.654 2°55.305 66 10.4 67 -999
2008-09-19 08:48:00 51°30.666 2°55.347 66 10.4 67 -999
2008-09-19 08:48:10 51°30.677 2°55.39 66 10.4 67 -999
2008-09-19 08:48:20 51°30.688 2°55.433 66 10.4 67 -999
2008-09-19 08:48:30 51°30.699 2°55.476 66 10.4 67 -999
2008-09-19 08:48:40 51°30.71 2°55.519 66 10.4 67 -999
2008-09-19 08:48:50 51°30.722 2°55.562 66 10.4 67 -999
2008-09-19 08:49:00 51°30.733 2°55.605 65.5 10.5 67 -999
2008-09-19 08:49:10 51°30.744 2°55.648 65.5 10.5 67 -999
2008-09-19 08:49:20 51°30.756 2°55.691 65.5 10.5 67 -999
2008-09-19 08:49:30 51°30.767 2°55.734 65.5 10.5 67 -999
2008-09-19 08:49:40 51°30.778 2°55.778 65.5 10.5 67 -999
2008-09-19 08:49:50 51°30.79 2°55.825 65.5 10.5 67 -999
2008-09-19 08:50:00 51°30.8 2°55.865 66.2 10.5 69 -999
2008-09-19 08:50:10 51°30.811 2°55.908 66.2 10.5 69 -999
2008-09-19 08:50:20 51°30.825 2°55.954 66.2 10.5 69 -999
2008-09-19 08:50:30 51°30.836 2°55.991 66.2 10.5 69 -999
2008-09-19 08:50:40 51°30.85 2°56.033 66.2 10.5 69 -999
2008-09-19 08:50:50 51°30.864 2°56.074 66.2 10.5 69 -999
2008-09-19 08:51:00 51°30.879 2°56.119 60.2 10.5 61 -999
2008-09-19 08:51:10 51°30.893 2°56.154 60.2 10.5 61 -999
2008-09-19 08:51:20 51°30.909 2°56.194 60.2 10.5 61 -999
2008-09-19 08:51:30 51°30.924 2°56.233 60.2 10.5 61 -999
2008-09-19 08:51:40 51°30.942 2°56.275 60.2 10.5 61 -999
2008-09-19 08:51:50 51°30.956 2°56.31 60.2 10.5 61 -999
2008-09-19 08:52:00 51°30.971 2°56.35 57.6 10.5 59 -999
2008-09-19 08:52:10 51°30.986 2°56.39 57.6 10.5 59 -999
2008-09-19 08:52:20 51°31.002 2°56.435 57.6 10.5 59 -999
2008-09-19 08:52:30 51°31.015 2°56.471 57.6 10.5 59 -999
2008-09-19 08:52:40 51°31.031 2°56.51 57.6 10.5 59 -999
2008-09-19 08:52:50 51°31.048 2°56.552 57.6 10.5 59 -999
2008-09-19 08:53:00 51°31.064 2°56.586 55.3 10.5 54 -999
2008-09-19 08:53:10 51°31.081 2°56.624 55.3 10.5 54 -999
2008-09-19 08:53:20 51°31.099 2°56.66 55.3 10.5 54 -999
2008-09-19 08:53:30 51°31.117 2°56.696 55.3 10.5 54 -999
2008-09-19 08:53:40 51°31.135 2°56.732 55.3 10.5 54 -999
2008-09-19 08:53:50 51°31.156 2°56.771 55.3 10.5 54 -999
2008-09-19 08:54:00 51°31.172 2°56.803 51.1 10.4 51 -999
2008-09-19 08:54:10 51°31.19 2°56.84 51.1 10.4 51 -999
2008-09-19 08:54:20 51°31.208 2°56.877 51.1 10.4 51 -999
2008-09-19 08:54:30 51°31.225 2°56.914 51.1 10.4 51 -999
2008-09-19 08:54:40 51°31.243 2°56.95 51.1 10.4 51 -999
2008-09-19 08:54:50 51°31.262 2°56.985 51.1 10.4 51 -999
2008-09-19 08:55:00 51°31.283 2°57.023 49.3 10.4 48 -999
2008-09-19 08:55:10 51°31.303 2°57.057 49.3 10.4 48 -999
2008-09-19 08:55:20 51°31.32 2°57.087 49.3 10.4 48 -999
2008-09-19 08:55:30 51°31.34 2°57.122 49.3 10.4 48 -999
2008-09-19 08:55:40 51°31.361 2°57.16 49.3 10.4 48 -999
2008-09-19 08:55:50 51°31.379 2°57.191 49.3 10.4 48 -999
2008-09-19 08:56:00 51°31.398 2°57.225 48.3 10.5 48 -999
2008-09-19 08:56:10 51°31.418 2°57.259 48.3 10.5 48 -999
2008-09-19 08:56:20 51°31.439 2°57.297 48.3 10.5 48 -999
2008-09-19 08:56:30 51°31.459 2°57.331 48.3 10.5 48 -999
2008-09-19 08:56:40 51°31.477 2°57.362 48.3 10.5 48 -999
2008-09-19 08:56:50 51°31.496 2°57.396 48.3 10.5 48 -999
2008-09-19 08:57:00 51°31.516 2°57.43 48.5 10.5 48 -999
2008-09-19 08:57:10 51°31.537 2°57.468 48.5 10.5 48 -999
2008-09-19 08:57:20 51°31.555 2°57.499 48.5 10.5 48 -999
2008-09-19 08:57:30 51°31.573 2°57.535 48.5 10.5 48 -999
2008-09-19 08:57:40 51°31.594 2°57.574 48.5 10.5 48 -999
2008-09-19 08:57:50 51°31.611 2°57.606 48.5 10.5 48 -999
2008-09-19 08:58:00 51°31.631 2°57.639 47.7 10.4 46 -999
2008-09-19 08:58:10 51°31.652 2°57.671 47.7 10.4 46 -999
2008-09-19 08:58:20 51°31.676 2°57.706 47.7 10.4 46 -999
2008-09-19 08:58:30 51°31.695 2°57.734 47.7 10.4 46 -999
2008-09-19 08:58:40 51°31.716 2°57.766 47.7 10.4 46 -999
2008-09-19 08:58:50 51°31.74 2°57.801 47.7 10.4 46 -999
2008-09-19 08:59:00 51°31.759 2°57.831 44.8 10.59 45 -999
2008-09-19 08:59:10 51°31.779 2°57.864 44.8 10.59 45 -999
2008-09-19 08:59:20 51°31.8 2°57.898 44.8 10.59 45 -999
2008-09-19 08:59:30 51°31.822 2°57.935 44.8 10.59 45 -999
2008-09-19 08:59:40 51°31.84 2°57.966 44.8 10.59 45 -999
2008-09-19 08:59:50 51°31.86 2°57.999 44.8 10.59 45 -999
2008-09-19 09:00:00 51°31.884 2°58.035 46.6 10.5 43 -999
2008-09-19 09:00:10 51°31.905 2°58.068 46.6 10.5 43 -999
2008-09-19 09:00:20 51°31.924 2°58.097 46.6 10.5 43 -999
2008-09-19 09:00:30 51°31.947 2°58.133 46.6 10.5 43 -999
2008-09-19 09:00:40 51°31.968 2°58.166 46.6 10.5 43 -999
2008-09-19 09:00:50 51°31.986 2°58.197 46.6 10.5 43 -999
2008-09-19 09:01:00 51°32.007 2°58.23 46.7 10.59 44 -999
2008-09-19 09:01:10 51°32.031 2°58.265 46.7 10.59 44 -999
2008-09-19 09:01:20 51°32.053 2°58.297 46.7 10.59 44 -999
2008-09-19 09:01:30 51°32.072 2°58.327 46.7 10.59 44 -999
2008-09-19 09:01:40 51°32.092 2°58.36 46.7 10.59 44 -999
2008-09-19 09:01:50 51°32.115 2°58.397 46.7 10.59 44 -999
2008-09-19 09:02:00 51°32.133 2°58.428 46.5 10.59 47 -999
2008-09-19 09:02:10 51°32.153 2°58.462 46.5 10.59 47 -999
2008-09-19 09:02:20 51°32.175 2°58.499 46.5 10.59 47 -999
2008-09-19 09:02:30 51°32.195 2°58.532 46.5 10.59 47 -999
2008-09-19 09:02:40 51°32.213 2°58.562 46.5 10.59 47 -999
2008-09-19 09:02:50 51°32.235 2°58.599 46.5 10.59 47 -999
2008-09-19 09:03:00 51°32.255 2°58.632 46.5 10.4 46 -999
2008-09-19 09:03:10 51°32.275 2°58.665 46.5 10.4 46 -999
2008-09-19 09:03:20 51°32.293 2°58.695 46.5 10.4 46 -999
2008-09-19 09:03:30 51°32.314 2°58.728 46.5 10.4 46 -999
2008-09-19 09:03:40 51°32.336 2°58.765 46.5 10.4 46 -999
2008-09-19 09:03:50 51°32.356 2°58.797 46.5 10.4 46 -999
2008-09-19 09:04:00 51°32.375 2°58.825 44.2 10.4 43 -999
2008-09-19 09:04:10 51°32.397 2°58.856 44.2 10.4 43 -999
2008-09-19 09:04:20 51°32.418 2°58.886 44.2 10.4 43 -999
2008-09-19 09:04:30 51°32.442 2°58.92 44.2 10.4 43 -999
2008-09-19 09:04:40 51°32.463 2°58.951 44.2 10.4 43 -999
2008-09-19 09:04:50 51°32.482 2°58.98 44.2 10.4 43 -999
2008-09-19 09:05:00 51°32.505 2°59.014 43.5 10.3 43 -999
2008-09-19 09:05:10 51°32.526 2°59.046 43.5 10.3 43 -999
2008-09-19 09:05:20 51°32.547 2°59.078 43.5 10.3 43 -999
2008-09-19 09:05:30 51°32.567 2°59.11 43.5 10.3 43 -999
2008-09-19 09:05:40 51°32.586 2°59.139 43.5 10.3 43 -999
2008-09-19 09:05:50 51°32.608 2°59.176 43.5 10.3 43 -999
2008-09-19 09:06:00 51°32.628 2°59.208 44.6 10.3 44 -999
2008-09-19 09:06:10 51°32.649 2°59.238 44.6 10.3 44 -999
2008-09-19 09:06:20 51°32.673 2°59.263 44.6 10.3 44 -999
2008-09-19 09:06:30 51°32.698 2°59.284 44.6 10.3 44 -999
2008-09-19 09:06:40 51°32.721 2°59.302 44.6 10.3 44 -999
2008-09-19 09:06:50 51°32.749 2°59.324 44.6 10.3 44 -999
2008-09-19 09:07:00 51°32.776 2°59.342 26.8 10.4 25 -999
2008-09-19 09:07:10 51°32.803 2°59.36 26.8 10.4 25 -999
2008-09-19 09:07:20 51°32.827 2°59.377 26.8 10.4 25 -999
2008-09-19 09:07:30 51°32.857 2°59.394 26.8 10.4 25 -999
2008-09-19 09:07:40 51°32.886 2°59.403 26.8 10.4 25 -999
2008-09-19 09:07:50 51°32.912 2°59.407 26.8 10.4 25 -999
2008-09-19 09:08:00 51°32.945 2°59.404 6.4 10.69 356 -999
2008-09-19 09:08:10 51°32.975 2°59.394 6.4 10.69 356 -999
2008-09-19 09:08:20 51°33.004 2°59.379 6.4 10.69 356 -999
2008-09-19 09:08:30 51°33.028 2°59.358 6.4 10.69 356 -999
2008-09-19 09:08:40 51°33.057 2°59.328 6.4 10.69 356 -999
2008-09-19 09:08:50 51°33.083 2°59.299 6.4 10.69 356 -999
2008-09-19 09:09:00 51°33.108 2°59.268 329.8 11.4 322 -999
2008-09-19 09:09:10 51°33.13 2°59.231 329.8 11.4 322 -999
2008-09-19 09:09:20 51°33.149 2°59.196 329.8 11.4 322 -999
2008-09-19 09:09:30 51°33.171 2°59.15 329.8 11.4 322 -999
2008-09-19 09:09:40 51°33.188 2°59.105 329.8 11.4 322 -999
2008-09-19 09:09:50 51°33.205 2°59.059 329.8 11.4 322 -999
2008-09-19 09:10:00 51°33.222 2°59.013 307.3 12 302 -999
2008-09-19 09:10:10 51°33.24 2°58.967 307.3 12 302 -999
2008-09-19 09:10:20 51°33.256 2°58.926 307.3 12 302 -999
2008-09-19 09:10:30 51°33.275 2°58.876 307.3 12 302 -999
2008-09-19 09:10:40 51°33.292 2°58.829 307.3 12 302 -999
2008-09-19 09:10:50 51°33.309 2°58.782 307.3 12 302 -999
2008-09-19 09:11:00 51°33.325 2°58.741 308.1 12.09 301 -999
2008-09-19 09:11:10 51°33.344 2°58.691 308.1 12.09 301 -999
2008-09-19 09:11:20 51°33.362 2°58.645 308.1 12.09 301 -999
2008-09-19 09:11:30 51°33.38 2°58.599 308.1 12.09 301 -999
2008-09-19 09:11:40 51°33.398 2°58.553 308.1 12.09 301 -999
2008-09-19 09:11:50 51°33.415 2°58.513 308.1 12.09 301 -999
2008-09-19 09:12:00 51°33.435 2°58.463 310.8 12.19 303 -999
2008-09-19 09:12:10 51°33.454 2°58.417 310.8 12.19 303 -999
2008-09-19 09:12:20 51°33.472 2°58.372 310.8 12.19 303 -999
2008-09-19 09:12:30 51°33.491 2°58.326 310.8 12.19 303 -999
2008-09-19 09:12:40 51°33.508 2°58.28 310.8 12.19 303 -999
2008-09-19 09:12:50 51°33.525 2°58.232 310.8 12.19 303 -999
2008-09-19 09:13:00 51°33.543 2°58.185 307.5 12.3 300 -999
2008-09-19 09:13:10 51°33.56 2°58.138 307.5 12.3 300 -999
2008-09-19 09:13:20 51°33.578 2°58.091 307.5 12.3 300 -999
2008-09-19 09:13:30 51°33.595 2°58.044 307.5 12.3 300 -999
2008-09-19 09:13:40 51°33.614 2°57.997 307.5 12.3 300 -999
2008-09-19 09:13:50 51°33.633 2°57.952 307.5 12.3 300 -999
2008-09-19 09:14:00 51°33.653 2°57.907 312 12.3 305 -999
2008-09-19 09:14:10 51°33.673 2°57.863 312 12.3 305 -999
2008-09-19 09:14:20 51°33.692 2°57.817 312 12.3 305 -999
2008-09-19 09:14:30 51°33.711 2°57.771 312 12.3 305 -999
2008-09-19 09:14:40 51°33.729 2°57.724 312 12.3 305 -999
2008-09-19 09:14:50 51°33.746 2°57.676 312 12.3 305 -999
2008-09-19 09:15:00 51°33.763 2°57.628 306.1 12.4 299 -999
2008-09-19 09:15:10 51°33.78 2°57.58 306.1 12.4 299 -999
2008-09-19 09:15:20 51°33.798 2°57.532 306.1 12.4 299 -999
2008-09-19 09:15:30 51°33.816 2°57.485 306.1 12.4 299 -999
2008-09-19 09:15:40 51°33.832 2°57.442 306.1 12.4 299 -999
2008-09-19 09:15:50 51°33.852 2°57.389 306.1 12.4 299 -999
2008-09-19 09:16:00 51°33.869 2°57.342 307.1 12.5 301 -999
2008-09-19 09:16:10 51°33.887 2°57.294 307.1 12.5 301 -999
2008-09-19 09:16:20 51°33.903 2°57.251 307.1 12.5 301 -999
2008-09-19 09:16:30 51°33.921 2°57.198 307.1 12.5 301 -999
2008-09-19 09:16:40 51°33.939 2°57.15 307.1 12.5 301 -999
2008-09-19 09:16:50 51°33.955 2°57.101 307.1 12.5 301 -999
2008-09-19 09:17:00 51°33.972 2°57.052 305.1 12.5 298 -999
2008-09-19 09:17:10 51°33.989 2°57.004 305.1 12.5 298 -999
2008-09-19 09:17:20 51°34.007 2°56.957 305.1 12.5 298 -999
2008-09-19 09:17:30 51°34.024 2°56.909 305.1 12.5 298 -999
2008-09-19 09:17:40 51°34.042 2°56.861 305.1 12.5 298 -999
2008-09-19 09:17:50 51°34.059 2°56.813 305.1 12.5 298 -999
2008-09-19 09:18:00 51°34.073 2°56.762 302.5 12.59 294 -999
2008-09-19 09:18:10 51°34.085 2°56.709 302.5 12.59 294 -999
2008-09-19 09:18:20 51°34.096 2°56.654 302.5 12.59 294 -999
2008-09-19 09:18:30 51°34.106 2°56.599 302.5 12.59 294 -999
2008-09-19 09:18:40 51°34.115 2°56.544 302.5 12.59 294 -999
2008-09-19 09:18:50 51°34.125 2°56.489 302.5 12.59 294 -999
2008-09-19 09:19:00 51°34.133 2°56.433 291.6 12.9 283 -999
2008-09-19 09:19:10 51°34.142 2°56.378 291.6 12.9 283 -999
2008-09-19 09:19:20 51°34.15 2°56.322 291.6 12.9 283 -999
2008-09-19 09:19:30 51°34.159 2°56.267 291.6 12.9 283 -999
2008-09-19 09:19:40 51°34.168 2°56.212 291.6 12.9 283 -999
2008-09-19 09:19:50 51°34.176 2°56.162 291.6 12.9 283 -999
2008-09-19 09:20:00 51°34.185 2°56.1 291.5 12.9 284 -999
2008-09-19 09:20:10 51°34.194 2°56.045 291.5 12.9 284 -999
2008-09-19 09:20:20 51°34.2 2°55.988 291.5 12.9 284 -999
2008-09-19 09:20:30 51°34.205 2°55.93 291.5 12.9 284 -999
2008-09-19 09:20:40 51°34.207 2°55.877 291.5 12.9 284 -999
2008-09-19 09:20:50 51°34.207 2°55.812 291.5 12.9 284 -999
2008-09-19 09:21:00 51°34.204 2°55.753 272.3 13.4 264 -999
2008-09-19 09:21:10 51°34.197 2°55.694 272.3 13.4 264 -999
2008-09-19 09:21:20 51°34.19 2°55.641 272.3 13.4 264 -999
2008-09-19 09:21:30 51°34.177 2°55.578 272.3 13.4 264 -999
2008-09-19 09:21:40 51°34.164 2°55.521 272.3 13.4 264 -999
2008-09-19 09:21:50 51°34.148 2°55.464 272.3 13.4 264 -999
2008-09-19 09:22:00 51°34.133 2°55.414 247.5 14 244 -999
2008-09-19 09:22:10 51°34.114 2°55.359 247.5 14 244 -999
2008-09-19 09:22:20 51°34.092 2°55.301 247.5 14 244 -999
2008-09-19 09:22:30 51°34.07 2°55.249 247.5 14 244 -999
2008-09-19 09:22:40 51°34.047 2°55.198 247.5 14 244 -999
2008-09-19 09:22:50 51°34.027 2°55.153 247.5 14 244 -999
2008-09-19 09:23:00 51°34.001 2°55.097 234.5 14 235 -999
2008-09-19 09:23:10 51°33.979 2°55.046 234.5 14 235 -999
2008-09-19 09:23:20 51°33.956 2°54.994 234.5 14 235 -999
2008-09-19 09:23:30 51°33.934 2°54.943 234.5 14 235 -999
2008-09-19 09:23:40 51°33.913 2°54.897 234.5 14 235 -999
2008-09-19 09:23:50 51°33.888 2°54.841 234.5 14 235 -999
2008-09-19 09:24:00 51°33.865 2°54.79 234.5 14.09 234 -999
2008-09-19 09:24:10 51°33.843 2°54.738 234.5 14.09 234 -999
2008-09-19 09:24:20 51°33.821 2°54.686 234.5 14.09 234 -999
2008-09-19 09:24:30 51°33.801 2°54.64 234.5 14.09 234 -999
2008-09-19 09:24:40 51°33.776 2°54.583 234.5 14.09 234 -999
2008-09-19 09:24:50 51°33.754 2°54.531 234.5 14.09 234 -999
2008-09-19 09:25:00 51°33.735 2°54.483 237.1 14.19 237 -999
2008-09-19 09:25:10 51°33.714 2°54.43 237.1 14.19 237 -999
2008-09-19 09:25:20 51°33.691 2°54.371 237.1 14.19 237 -999
2008-09-19 09:25:30 51°33.669 2°54.319 237.1 14.19 237 -999
2008-09-19 09:25:40 51°33.648 2°54.273 237.1 14.19 237 -999
2008-09-19 09:25:50 51°33.623 2°54.216 237.1 14.19 237 -999
2008-09-19 09:26:00 51°33.601 2°54.164 235 14.19 237 -999
2008-09-19 09:26:10 51°33.579 2°54.112 235 14.19 237 -999
2008-09-19 09:26:20 51°33.558 2°54.066 235 14.19 237 -999
2008-09-19 09:26:30 51°33.534 2°54.009 235 14.19 237 -999
2008-09-19 09:26:40 51°33.512 2°53.957 235 14.19 237 -999
2008-09-19 09:26:50 51°33.492 2°53.91 235 14.19 237 -999
2008-09-19 09:27:00 51°33.468 2°53.852 237.5 14.19 237 -999
2008-09-19 09:27:10 51°33.447 2°53.799 237.5 14.19 237 -999
2008-09-19 09:27:20 51°33.424 2°53.746 237.5 14.19 237 -999
2008-09-19 09:27:30 51°33.402 2°53.695 237.5 14.19 237 -999
2008-09-19 09:27:40 51°33.381 2°53.648 237.5 14.19 237 -999
2008-09-19 09:27:50 51°33.357 2°53.59 237.5 14.19 237 -999
2008-09-19 09:28:00 51°33.338 2°53.543 237 14.19 237 -999
2008-09-19 09:28:10 51°33.316 2°53.49 237 14.19 237 -999
2008-09-19 09:28:20 51°33.292 2°53.431 237 14.19 237 -999
2008-09-19 09:28:30 51°33.271 2°53.378 237 14.19 237 -999
2008-09-19 09:28:40 51°33.251 2°53.33 237 14.19 237 -999
2008-09-19 09:28:50 51°33.228 2°53.272 237 14.19 237 -999
2008-09-19 09:29:00 51°33.205 2°53.22 238 14.19 236 -999
2008-09-19 09:29:10 51°33.184 2°53.167 238 14.19 236 -999
2008-09-19 09:29:20 51°33.164 2°53.12 238 14.19 236 -999
2008-09-19 09:29:30 51°33.141 2°53.068 238 14.19 236 -999
2008-09-19 09:29:40 51°33.116 2°53.011 238 14.19 236 -999
2008-09-19 09:29:50 51°33.093 2°52.959 238 14.19 236 -999
2008-09-19 09:30:00 51°33.069 2°52.909 234.8 14.19 233 -999
2008-09-19 09:30:10 51°33.047 2°52.857 234.8 14.19 233 -999
2008-09-19 09:30:20 51°33.026 2°52.805 234.8 14.19 233 -999
2008-09-19 09:30:30 51°33.005 2°52.751 234.8 14.19 233 -999
2008-09-19 09:30:40 51°32.986 2°52.703 234.8 14.19 233 -999
2008-09-19 09:30:50 51°32.964 2°52.644 234.8 14.19 233 -999
2008-09-19 09:31:00 51°32.944 2°52.59 240.3 14.19 240 -999
2008-09-19 09:31:10 51°32.926 2°52.54 240.3 14.19 240 -999
2008-09-19 09:31:20 51°32.907 2°52.485 240.3 14.19 240 -999
2008-09-19 09:31:30 51°32.885 2°52.425 240.3 14.19 240 -999
2008-09-19 09:31:40 51°32.866 2°52.371 240.3 14.19 240 -999
2008-09-19 09:31:50 51°32.847 2°52.323 240.3 14.19 240 -999
2008-09-19 09:32:00 51°32.826 2°52.27 240.9 14.09 237 -999
2008-09-19 09:32:10 51°32.805 2°52.218 240.9 14.09 237 -999
2008-09-19 09:32:20 51°32.782 2°52.159 240.9 14.09 237 -999
2008-09-19 09:32:30 51°32.761 2°52.106 240.9 14.09 237 -999
2008-09-19 09:32:40 51°32.742 2°52.059 240.9 14.09 237 -999
2008-09-19 09:32:50 51°32.72 2°52.007 240.9 14.09 237 -999
2008-09-19 09:33:00 51°32.697 2°51.95 238 14 237 -999
2008-09-19 09:33:10 51°32.676 2°51.898 238 14 237 -999
2008-09-19 09:33:20 51°32.655 2°51.846 238 14 237 -999
2008-09-19 09:33:30 51°32.633 2°51.794 238 14 237 -999
2008-09-19 09:33:40 51°32.615 2°51.746 238 14 237 -999
2008-09-19 09:33:50 51°32.595 2°51.692 238 14 237 -999
2008-09-19 09:34:00 51°32.573 2°51.633 242 14.09 239 -999
2008-09-19 09:34:10 51°32.554 2°51.579 242 14.09 239 -999
2008-09-19 09:34:20 51°32.536 2°51.531 242 14.09 239 -999
2008-09-19 09:34:30 51°32.516 2°51.477 242 14.09 239 -999
2008-09-19 09:34:40 51°32.494 2°51.419 242 14.09 239 -999
2008-09-19 09:34:50 51°32.474 2°51.366 242 14.09 239 -999
2008-09-19 09:35:00 51°32.454 2°51.319 239 14 236 -999
2008-09-19 09:35:10 51°32.432 2°51.268 239 14 236 -999
2008-09-19 09:35:20 51°32.409 2°51.217 239 14 236 -999
2008-09-19 09:35:30 51°32.384 2°51.16 239 14 236 -999
2008-09-19 09:35:40 51°32.362 2°51.108 239 14 236 -999
2008-09-19 09:35:50 51°32.343 2°51.061 239 14 236 -999
2008-09-19 09:36:00 51°32.318 2°51.005 237.1 14 236 -999
2008-09-19 09:36:10 51°32.296 2°50.954 237.1 14 236 -999
2008-09-19 09:36:20 51°32.274 2°50.901 237.1 14 236 -999
2008-09-19 09:36:30 51°32.256 2°50.853 237.1 14 236 -999
2008-09-19 09:36:40 51°32.233 2°50.795 237.1 14 236 -999
2008-09-19 09:36:50 51°32.211 2°50.742 237.1 14 236 -999
2008-09-19 09:37:00 51°32.192 2°50.696 239.5 14.09 236 -999
2008-09-19 09:37:10 51°32.17 2°50.643 239.5 14.09 236 -999
2008-09-19 09:37:20 51°32.146 2°50.586 239.5 14.09 236 -999
2008-09-19 09:37:30 51°32.127 2°50.539 239.5 14.09 236 -999
2008-09-19 09:37:40 51°32.105 2°50.487 239.5 14.09 236 -999
2008-09-19 09:37:50 51°32.082 2°50.429 239.5 14.09 236 -999
2008-09-19 09:38:00 51°32.06 2°50.376 239.6 14.09 237 -999
2008-09-19 09:38:10 51°32.039 2°50.324 239.6 14.09 237 -999
2008-09-19 09:38:20 51°32.02 2°50.277 239.6 14.09 237 -999
2008-09-19 09:38:30 51°31.999 2°50.224 239.6 14.09 237 -999
2008-09-19 09:38:40 51°31.975 2°50.167 239.6 14.09 237 -999
2008-09-19 09:38:50 51°31.955 2°50.121 239.6 14.09 237 -999
2008-09-19 09:39:00 51°31.932 2°50.07 236.5 14.09 235 -999
2008-09-19 09:39:10 51°31.909 2°50.02 236.5 14.09 235 -999
2008-09-19 09:39:20 51°31.885 2°49.963 236.5 14.09 235 -999
2008-09-19 09:39:30 51°31.862 2°49.912 236.5 14.09 235 -999
2008-09-19 09:39:40 51°31.842 2°49.867 236.5 14.09 235 -999
2008-09-19 09:39:50 51°31.82 2°49.816 236.5 14.09 235 -999
2008-09-19 09:40:00 51°31.795 2°49.759 236.5 14 235 -999
2008-09-19 09:40:10 51°31.773 2°49.708 236.5 14 235 -999
2008-09-19 09:40:20 51°31.753 2°49.662 236.5 14 235 -999
2008-09-19 09:40:30 51°31.731 2°49.611 236.5 14 235 -999
2008-09-19 09:40:40 51°31.707 2°49.554 236.5 14 235 -999
2008-09-19 09:40:50 51°31.686 2°49.501 236.5 14 235 -999
2008-09-19 09:41:00 51°31.667 2°49.454 239.8 14 237 -999
2008-09-19 09:41:10 51°31.646 2°49.401 239.8 14 237 -999
2008-09-19 09:41:20 51°31.625 2°49.348 239.8 14 237 -999
2008-09-19 09:41:30 51°31.604 2°49.295 239.8 14 237 -999
2008-09-19 09:41:40 51°31.581 2°49.238 239.8 14 237 -999
2008-09-19 09:41:50 51°31.562 2°49.19 239.8 14 237 -999
2008-09-19 09:42:00 51°31.54 2°49.138 239.1 14 237 -999
2008-09-19 09:42:10 51°31.516 2°49.081 239.1 14 237 -999
2008-09-19 09:42:20 51°31.495 2°49.035 239.1 14 237 -999
2008-09-19 09:42:30 51°31.473 2°48.984 239.1 14 237 -999
2008-09-19 09:42:40 51°31.45 2°48.932 239.1 14 237 -999
2008-09-19 09:42:50 51°31.427 2°48.882 239.1 14 237 -999
2008-09-19 09:43:00 51°31.405 2°48.83 236.1 14.09 235 -999
2008-09-19 09:43:10 51°31.382 2°48.779 236.1 14.09 235 -999
2008-09-19 09:43:20 51°31.357 2°48.722 236.1 14.09 235 -999
2008-09-19 09:43:30 51°31.337 2°48.676 236.1 14.09 235 -999
2008-09-19 09:43:40 51°31.316 2°48.623 236.1 14.09 235 -999
2008-09-19 09:43:50 51°31.295 2°48.57 236.1 14.09 235 -999
2008-09-19 09:44:00 51°31.274 2°48.517 240.5 14 238 -999
2008-09-19 09:44:10 51°31.254 2°48.464 240.5 14 238 -999
2008-09-19 09:44:20 51°31.232 2°48.412 240.5 14 238 -999
2008-09-19 09:44:30 51°31.211 2°48.359 240.5 14 238 -999